createdAt,value
2022-10-11T00:01:46.846Z,74.65
2022-10-11T00:04:14.518Z,75.01
2022-10-11T00:06:43.935Z,75.04
2022-10-11T00:09:12.081Z,74.93
2022-10-11T00:11:39.668Z,75.12
2022-10-11T00:14:07.250Z,74.64
2022-10-11T00:16:34.761Z,74.72
2022-10-11T00:19:02.699Z,74.67
2022-10-11T00:21:30.770Z,74.78
2022-10-11T00:23:58.324Z,75.22
2022-10-11T00:26:25.930Z,74.59
2022-10-11T00:28:53.511Z,73.83
2022-10-11T00:31:21.711Z,74.20
2022-10-11T00:33:49.346Z,73.76
2022-10-11T00:36:17.535Z,74.11
2022-10-11T00:38:45.096Z,73.32
2022-10-11T00:41:12.719Z,73.75
2022-10-11T00:43:40.458Z,72.92
2022-10-11T00:46:08.422Z,73.67
2022-10-11T00:48:36.430Z,73.65
2022-10-11T00:51:04.302Z,73.43
2022-10-11T00:53:31.992Z,73.32
2022-10-11T00:56:00.083Z,73.27
2022-10-11T00:58:27.645Z,73.17
2022-10-11T01:00:55.339Z,72.91
2022-10-11T01:03:23.007Z,73.15
2022-10-11T01:05:50.563Z,73.20
2022-10-11T01:08:18.653Z,73.29
2022-10-11T01:10:46.249Z,73.38
2022-10-11T01:13:13.788Z,73.85
2022-10-11T01:15:41.326Z,73.56
2022-10-11T01:18:08.897Z,74.15
2022-10-11T01:20:37.211Z,74.56
2022-10-11T01:23:05.108Z,74.13
2022-10-11T01:25:33.176Z,74.35
2022-10-11T01:28:00.748Z,74.14
2022-10-11T01:30:28.306Z,74.28
2022-10-11T01:32:56.464Z,74.41
2022-10-11T01:35:24.070Z,74.38
2022-10-11T01:37:51.582Z,74.39
2022-10-11T01:40:19.147Z,74.46
2022-10-11T01:42:46.689Z,74.71
2022-10-11T01:45:15.720Z,74.78
2022-10-11T01:47:45.823Z,74.53
2022-10-11T01:50:13.391Z,74.61
2022-10-11T01:52:40.919Z,74.60
2022-10-11T01:55:10.156Z,74.40
2022-10-11T01:57:38.663Z,74.37
2022-10-11T02:00:06.224Z,74.51
2022-10-11T02:02:33.830Z,74.43
2022-10-11T02:05:01.548Z,74.56
2022-10-11T02:07:29.812Z,74.81
2022-10-11T02:09:58.202Z,74.53
2022-10-11T02:12:25.707Z,74.85
2022-10-11T02:14:53.244Z,74.63
2022-10-11T02:17:21.008Z,74.99
2022-10-11T02:19:48.567Z,75.06
2022-10-11T02:22:16.780Z,74.57
2022-10-11T02:24:44.403Z,74.70
2022-10-11T02:27:11.959Z,74.77
2022-10-11T02:29:39.960Z,74.65
2022-10-11T02:32:07.530Z,74.71
2022-10-11T02:34:35.086Z,74.77
2022-10-11T02:37:02.610Z,74.95
2022-10-11T02:39:30.215Z,74.87
2022-10-11T02:41:57.851Z,75.50
2022-10-11T02:44:25.424Z,75.14
2022-10-11T02:46:53.556Z,75.30
2022-10-11T02:49:21.096Z,75.22
2022-10-11T02:51:49.326Z,75.32
2022-10-11T02:54:16.863Z,75.40
2022-10-11T02:56:44.453Z,75.05
2022-10-11T02:59:12.943Z,75.24
2022-10-11T03:01:40.606Z,75.02
2022-10-11T03:04:08.239Z,75.07
2022-10-11T03:06:35.782Z,75.40
2022-10-11T03:09:03.339Z,74.84
2022-10-11T03:11:31.510Z,75.03
2022-10-11T03:13:59.539Z,75.23
2022-10-11T03:16:27.141Z,75.51
2022-10-11T03:18:54.765Z,75.52
2022-10-11T03:21:22.276Z,75.31
2022-10-11T03:23:49.920Z,75.53
2022-10-11T03:26:17.503Z,75.69
2022-10-11T03:28:45.298Z,75.63
2022-10-11T03:31:12.995Z,75.46
2022-10-11T03:33:40.531Z,75.45
2022-10-11T03:36:09.724Z,76.08
2022-10-11T03:38:37.326Z,75.24
2022-10-11T03:41:04.886Z,75.28
2022-10-11T03:43:32.437Z,75.47
2022-10-11T03:46:00.353Z,75.41
2022-10-11T03:48:28.305Z,74.80
2022-10-11T03:50:55.853Z,74.78
2022-10-11T03:53:23.602Z,75.09
2022-10-11T03:55:51.147Z,74.72
2022-10-11T03:58:19.050Z,74.99
2022-10-11T04:00:47.120Z,74.87
2022-10-11T04:03:14.686Z,75.28
2022-10-11T04:05:42.235Z,74.99
2022-10-11T04:08:12.133Z,75.60
2022-10-11T04:10:40.157Z,75.28
2022-10-11T04:13:08.030Z,75.06
2022-10-11T04:15:35.602Z,74.95
2022-10-11T04:18:03.158Z,75.16
2022-10-11T04:20:31.117Z,75.18
2022-10-11T04:22:58.713Z,74.92
2022-10-11T04:25:26.547Z,75.10
2022-10-11T04:27:54.107Z,75.33
2022-10-11T04:30:21.975Z,74.87
2022-10-11T04:32:49.526Z,75.07
2022-10-11T04:35:17.053Z,75.00
2022-10-11T04:37:45.035Z,75.23
2022-10-11T04:40:12.618Z,74.90
2022-10-11T04:42:40.148Z,75.36
2022-10-11T04:45:07.727Z,75.46
2022-10-11T04:47:35.328Z,75.79
2022-10-11T04:50:03.252Z,75.85
2022-10-11T04:52:30.786Z,75.83
2022-10-11T04:54:58.350Z,75.79
2022-10-11T04:57:25.981Z,75.38
2022-10-11T04:59:53.664Z,75.58
2022-10-11T05:02:23.259Z,76.27
2022-10-11T05:04:51.267Z,76.05
2022-10-11T05:07:18.842Z,75.64
2022-10-11T05:09:46.412Z,76.24
2022-10-11T05:12:13.982Z,75.81
2022-10-11T05:14:42.129Z,76.46
2022-10-11T05:17:09.709Z,75.88
2022-10-11T05:19:37.251Z,76.16
2022-10-11T05:22:04.973Z,76.39
2022-10-11T05:24:33.029Z,75.93
2022-10-11T05:27:03.585Z,76.42
2022-10-11T05:29:31.362Z,75.87
2022-10-11T05:31:58.968Z,76.58
2022-10-11T05:34:26.512Z,76.12
2022-10-11T05:36:54.143Z,75.85
2022-10-11T05:39:22.040Z,76.37
2022-10-11T05:41:49.625Z,75.97
2022-10-11T05:44:17.214Z,76.28
2022-10-11T05:46:44.787Z,76.46
2022-10-11T05:49:12.400Z,75.67
2022-10-11T05:51:40.293Z,75.50
2022-10-11T05:54:07.829Z,76.08
2022-10-11T05:56:35.433Z,76.02
2022-10-11T05:59:03.065Z,75.95
2022-10-11T06:01:30.797Z,75.79
2022-10-11T06:03:58.942Z,76.13
2022-10-11T06:06:26.962Z,75.87
2022-10-11T06:08:54.534Z,75.78
2022-10-11T06:11:22.198Z,75.60
2022-10-11T06:13:49.969Z,75.47
2022-10-11T06:16:17.855Z,76.20
2022-10-11T06:18:45.508Z,76.23
2022-10-11T06:21:13.280Z,75.40
2022-10-11T06:23:40.920Z,75.18
2022-10-11T06:26:09.355Z,75.64
2022-10-11T06:28:39.085Z,75.76
2022-10-11T06:31:06.666Z,75.37
2022-10-11T06:33:34.219Z,75.81
2022-10-11T06:36:02.184Z,75.07
2022-10-11T06:38:29.973Z,75.00
2022-10-11T06:40:58.153Z,74.90
2022-10-11T06:43:25.736Z,75.23
2022-10-11T06:45:53.369Z,75.13
2022-10-11T06:48:20.981Z,74.72
2022-10-11T06:50:59.624Z,74.39
2022-10-11T06:53:28.713Z,74.79
2022-10-11T06:55:56.445Z,74.37
2022-10-11T06:58:24.032Z,74.28
2022-10-11T07:00:51.796Z,74.24
2022-10-11T07:03:19.552Z,73.96
2022-10-11T07:05:47.712Z,74.03
2022-10-11T07:08:15.420Z,74.02
2022-10-11T07:10:43.105Z,73.59
2022-10-11T07:13:16.230Z,74.12
2022-10-11T07:15:44.830Z,73.59
2022-10-11T07:18:12.776Z,73.54
2022-10-11T07:20:40.599Z,73.51
2022-10-11T07:23:08.279Z,73.67
2022-10-11T07:25:35.985Z,73.59
2022-10-11T07:28:03.768Z,73.59
2022-10-11T07:30:32.286Z,73.23
2022-10-11T07:33:00.368Z,72.63
2022-10-11T07:35:28.162Z,72.37
2022-10-11T07:37:55.889Z,72.40
2022-10-11T07:40:23.840Z,71.87
2022-10-11T07:42:52.201Z,71.61
2022-10-11T07:45:19.910Z,71.39
2022-10-11T07:47:47.663Z,71.20
2022-10-11T07:50:15.539Z,71.21
2022-10-11T07:52:43.246Z,71.02
2022-10-11T07:55:12.576Z,70.77
2022-10-11T07:57:40.309Z,70.12
2022-10-11T08:00:08.135Z,70.38
2022-10-11T08:02:35.865Z,70.29
2022-10-11T08:05:03.592Z,70.10
2022-10-11T08:07:32.468Z,69.82
2022-10-11T08:10:00.403Z,70.15
2022-10-11T08:12:28.316Z,69.99
2022-10-11T08:14:56.148Z,70.08
2022-10-11T08:17:23.986Z,69.79
2022-10-11T08:19:52.465Z,69.65
2022-10-11T08:22:20.674Z,69.37
2022-10-11T08:24:48.569Z,69.02
2022-10-11T08:27:16.471Z,68.96
2022-10-11T08:29:44.237Z,68.00
2022-10-11T08:32:13.254Z,67.97
2022-10-11T08:34:41.211Z,67.46
2022-10-11T08:37:09.505Z,67.43
2022-10-11T08:39:37.342Z,66.89
2022-10-11T08:42:05.073Z,66.89
2022-10-11T08:44:51.861Z,67.07
2022-10-11T08:47:21.247Z,66.44
2022-10-11T08:49:49.090Z,66.38
2022-10-11T08:52:17.011Z,66.38
2022-10-11T08:54:45.614Z,66.82
2022-10-11T08:57:13.803Z,66.68
2022-10-11T08:59:41.670Z,66.40
2022-10-11T09:02:09.416Z,66.54
2022-10-11T09:04:37.337Z,66.38
2022-10-11T09:07:06.597Z,66.42
2022-10-11T09:09:34.408Z,66.42
2022-10-11T09:12:02.320Z,65.74
2022-10-11T09:14:30.063Z,66.33
2022-10-11T09:16:57.851Z,66.20
2022-10-11T09:19:25.824Z,66.24
2022-10-11T09:21:53.727Z,65.67
2022-10-11T09:24:21.483Z,65.75
2022-10-11T09:26:49.305Z,65.96
2022-10-11T09:29:17.187Z,65.51
2022-10-11T09:31:45.783Z,65.86
2022-10-11T09:34:13.784Z,65.21
2022-10-11T09:36:41.706Z,65.81
2022-10-11T09:39:09.471Z,65.00
2022-10-11T09:41:37.385Z,65.00
2022-10-11T09:44:05.238Z,64.83
2022-10-11T09:46:32.961Z,64.44
2022-10-11T09:49:00.746Z,64.20
2022-10-11T09:51:28.582Z,63.78
2022-10-11T09:53:56.582Z,62.69
2022-10-11T09:56:25.095Z,61.90
2022-10-11T09:58:52.862Z,61.17
2022-10-11T10:01:20.980Z,60.75
2022-10-11T10:03:48.852Z,59.21
2022-10-11T10:06:16.741Z,58.17
2022-10-11T10:08:47.147Z,57.59
2022-10-11T10:11:14.902Z,56.79
2022-10-11T10:13:42.540Z,56.53
2022-10-11T10:16:12.038Z,56.77
2022-10-11T10:18:39.791Z,57.00
2022-10-11T10:21:08.878Z,57.45
2022-10-11T10:23:37.422Z,58.30
2022-10-11T10:26:05.489Z,58.53
2022-10-11T10:28:33.412Z,59.46
2022-10-11T10:31:01.286Z,60.43
2022-10-11T10:33:29.950Z,61.33
2022-10-11T10:35:57.879Z,61.67
2022-10-11T10:38:26.811Z,61.46
2022-10-11T10:40:55.258Z,60.66
2022-10-11T10:43:22.956Z,59.55
2022-10-11T10:45:51.471Z,59.34
2022-10-11T10:48:19.445Z,59.62
2022-10-11T10:50:47.292Z,59.59
2022-10-11T10:53:15.143Z,59.66
2022-10-11T10:55:43.086Z,59.55
2022-10-11T10:58:13.979Z,59.13
2022-10-11T11:00:45.690Z,58.88
2022-10-11T11:03:13.495Z,59.54
2022-10-11T11:05:41.690Z,59.36
2022-10-11T11:08:09.685Z,59.32
2022-10-11T11:10:37.779Z,59.46
2022-10-11T11:13:05.505Z,59.74
2022-10-11T11:15:37.753Z,59.51
2022-10-11T11:18:06.227Z,59.60
2022-10-11T11:20:34.118Z,59.85
2022-10-11T11:23:03.522Z,59.36
2022-10-11T11:25:31.282Z,58.59
2022-10-11T11:27:59.532Z,57.03
2022-10-11T11:30:27.178Z,56.06
2022-10-11T11:32:55.010Z,54.55
2022-10-11T11:35:23.294Z,55.10
2022-10-11T11:37:55.575Z,55.25
2022-10-11T11:40:27.388Z,54.81
2022-10-11T11:42:55.356Z,55.30
2022-10-11T11:45:24.449Z,54.96
2022-10-11T11:47:53.481Z,55.62
2022-10-11T11:50:22.880Z,57.26
2022-10-11T11:52:50.850Z,58.16
2022-10-11T11:55:18.577Z,58.25
2022-10-11T11:57:46.806Z,59.25
2022-10-11T12:00:14.653Z,60.23
2022-10-11T12:02:42.501Z,60.04
2022-10-11T12:05:10.427Z,59.49
2022-10-11T12:07:38.266Z,59.90
2022-10-11T12:10:08.377Z,60.63
2022-10-11T12:12:36.423Z,61.32
2022-10-11T12:15:04.327Z,60.70
2022-10-11T12:17:32.255Z,61.35
2022-10-11T12:20:00.303Z,61.31
2022-10-11T12:22:28.525Z,60.98
2022-10-11T12:24:56.299Z,60.64
2022-10-11T12:27:24.029Z,59.91
2022-10-11T12:29:51.896Z,58.42
2022-10-11T12:32:19.967Z,57.47
2022-10-11T12:34:48.307Z,55.87
2022-10-11T12:37:16.011Z,55.18
2022-10-11T12:39:43.932Z,55.01
2022-10-11T12:42:11.726Z,55.08
2022-10-11T12:44:39.611Z,55.35
2022-10-11T12:47:08.468Z,54.96
2022-10-11T12:49:36.803Z,54.58
2022-10-11T12:52:04.651Z,54.81
2022-10-11T12:54:36.972Z,54.95
2022-10-11T12:57:09.669Z,55.09
2022-10-11T12:59:40.055Z,54.84
2022-10-11T13:02:08.147Z,55.29
2022-10-11T13:04:35.827Z,55.09
2022-10-11T13:07:06.888Z,54.88
2022-10-11T13:09:34.772Z,54.84
2022-10-11T13:12:03.006Z,55.18
2022-10-11T13:14:30.886Z,55.50
2022-10-11T13:17:00.279Z,55.92
2022-10-11T13:19:28.054Z,55.63
2022-10-11T13:21:56.024Z,55.48
2022-10-11T13:24:24.335Z,55.37
2022-10-11T13:26:52.117Z,55.34
2022-10-11T13:29:20.018Z,55.18
2022-10-11T13:31:47.695Z,54.35
2022-10-11T13:34:17.575Z,54.55
2022-10-11T13:36:49.857Z,54.10
2022-10-11T13:39:17.592Z,54.57
2022-10-11T13:41:45.352Z,53.99
2022-10-11T13:44:13.175Z,52.88
2022-10-11T13:46:41.879Z,52.30
2022-10-11T13:49:10.359Z,52.02
2022-10-11T13:51:38.197Z,51.39
2022-10-11T13:54:06.024Z,51.58
2022-10-11T13:56:33.920Z,51.77
2022-10-11T13:59:02.041Z,51.38
2022-10-11T14:01:31.827Z,52.05
2022-10-11T14:03:59.543Z,52.09
2022-10-11T14:06:27.370Z,52.90
2022-10-11T14:08:55.223Z,53.04
2022-10-11T14:11:22.963Z,53.70
2022-10-11T14:13:51.681Z,53.79
2022-10-11T14:16:19.754Z,53.21
2022-10-11T14:18:47.589Z,52.49
2022-10-11T14:21:15.790Z,52.60
2022-10-11T14:23:43.470Z,52.23
2022-10-11T14:26:15.061Z,51.83
2022-10-11T14:28:45.745Z,51.53
2022-10-11T14:31:13.581Z,52.17
2022-10-11T14:33:41.335Z,53.27
2022-10-11T14:36:09.265Z,54.23
2022-10-11T14:38:39.111Z,54.73
2022-10-11T14:41:06.936Z,55.91
2022-10-11T14:43:35.244Z,56.83
2022-10-11T14:46:03.008Z,56.80
2022-10-11T14:48:50.702Z,56.40
2022-10-11T14:51:19.478Z,54.65
2022-10-11T14:53:47.359Z,53.69
2022-10-11T14:56:19.029Z,52.88
2022-10-11T14:58:49.245Z,52.02
2022-10-11T15:01:17.245Z,51.35
2022-10-11T15:03:46.771Z,50.55
2022-10-11T15:06:14.679Z,50.18
2022-10-11T15:08:42.467Z,49.16
2022-10-11T15:11:10.268Z,47.92
2022-10-11T15:13:38.041Z,46.84
2022-10-11T15:16:06.946Z,46.40
2022-10-11T15:18:34.931Z,46.02
2022-10-11T15:21:02.893Z,45.70
2022-10-11T15:23:30.665Z,45.15
2022-10-11T15:25:58.857Z,45.23
2022-10-11T15:28:27.653Z,45.63
2022-10-11T15:30:55.471Z,45.80
2022-10-11T15:33:23.298Z,46.72
2022-10-11T15:35:51.169Z,49.17
2022-10-11T15:38:18.927Z,51.13
2022-10-11T15:40:47.251Z,52.88
2022-10-11T15:43:15.186Z,54.45
2022-10-11T15:45:43.020Z,55.34
2022-10-11T15:48:11.133Z,56.71
2022-10-11T15:50:39.021Z,57.14
2022-10-11T15:53:07.526Z,57.54
2022-10-11T15:55:35.300Z,58.25
2022-10-11T15:58:03.241Z,58.83
2022-10-11T16:00:31.050Z,58.88
2022-10-11T16:02:58.854Z,59.59
2022-10-11T16:05:27.397Z,59.67
2022-10-11T16:07:55.245Z,60.28
2022-10-11T16:10:23.510Z,60.97
2022-10-11T16:12:51.338Z,60.68
2022-10-11T16:15:19.292Z,61.15
2022-10-11T16:17:47.562Z,61.74
2022-10-11T16:20:15.415Z,61.85
2022-10-11T16:22:43.418Z,61.66
2022-10-11T16:25:11.317Z,62.17
2022-10-11T16:27:39.298Z,62.45
2022-10-11T16:30:07.782Z,62.52
2022-10-11T16:32:35.971Z,63.01
2022-10-11T16:35:04.012Z,63.33
2022-10-11T16:37:31.759Z,63.23
2022-10-11T16:39:59.674Z,63.31
2022-10-11T16:42:27.756Z,63.38
2022-10-11T16:44:55.516Z,63.53
2022-10-11T16:47:23.339Z,63.51
2022-10-11T16:49:51.175Z,63.82
2022-10-11T16:52:18.874Z,64.21
2022-10-11T16:54:48.779Z,64.23
2022-10-11T16:57:16.571Z,64.33
2022-10-11T16:59:44.422Z,64.33
2022-10-11T17:02:12.281Z,64.82
2022-10-11T17:04:40.284Z,64.65
2022-10-11T17:07:12.847Z,64.64
2022-10-11T17:09:44.033Z,64.85
2022-10-11T17:12:13.072Z,65.17
2022-10-11T17:14:40.872Z,65.08
2022-10-11T17:17:09.195Z,65.44
2022-10-11T17:19:41.337Z,65.38
2022-10-11T17:22:11.943Z,65.22
2022-10-11T17:24:39.800Z,65.28
2022-10-11T17:27:07.600Z,65.54
2022-10-11T17:29:35.826Z,65.72
2022-10-11T17:32:03.847Z,65.86
2022-10-11T17:34:31.841Z,65.84
2022-10-11T17:37:00.191Z,66.21
2022-10-11T17:39:27.966Z,66.52
2022-10-11T17:41:56.372Z,66.35
2022-10-11T17:44:24.688Z,66.35
2022-10-11T17:46:52.635Z,66.43
2022-10-11T17:49:20.515Z,66.86
2022-10-11T17:51:48.327Z,66.65
2022-10-11T17:54:16.881Z,66.66
2022-10-11T17:56:45.256Z,66.37
2022-10-11T17:59:13.652Z,66.89
2022-10-11T18:01:41.588Z,67.16
2022-10-11T18:04:16.639Z,67.54
2022-10-11T18:06:45.730Z,67.64
2022-10-11T18:09:13.641Z,67.43
2022-10-11T18:11:41.385Z,67.70
2022-10-11T18:14:09.214Z,67.30
2022-10-11T18:16:37.060Z,67.53
2022-10-11T18:19:05.570Z,67.86
2022-10-11T18:21:34.815Z,67.32
2022-10-11T18:24:02.851Z,67.64
2022-10-11T18:26:31.214Z,67.60
2022-10-11T18:28:59.171Z,67.56
2022-10-11T18:31:27.514Z,67.53
2022-10-11T18:33:55.409Z,66.96
2022-10-11T18:36:23.196Z,67.88
2022-10-11T18:38:51.034Z,67.84
2022-10-11T18:41:18.971Z,67.53
2022-10-11T18:43:49.053Z,68.08
2022-10-11T18:46:16.824Z,68.07
2022-10-11T18:48:44.806Z,68.28
2022-10-11T18:51:12.654Z,68.20
2022-10-11T18:53:40.417Z,68.02
2022-10-11T18:56:09.113Z,68.27
2022-10-11T18:58:37.215Z,67.59
2022-10-11T19:01:04.986Z,67.92
2022-10-11T19:03:35.249Z,68.10
2022-10-11T19:06:04.084Z,68.08
2022-10-11T19:08:32.684Z,68.18
2022-10-11T19:11:00.848Z,68.50
2022-10-11T19:13:28.607Z,68.35
2022-10-11T19:15:56.406Z,68.42
2022-10-11T19:18:25.742Z,68.08
2022-10-11T19:20:53.677Z,68.04
2022-10-11T19:23:22.444Z,68.62
2022-10-11T19:25:50.431Z,68.16
2022-10-11T19:28:18.907Z,67.96
2022-10-11T19:30:46.900Z,68.55
2022-10-11T19:33:15.339Z,68.62
2022-10-11T19:35:43.680Z,68.76
2022-10-11T19:38:11.561Z,68.58
2022-10-11T19:40:39.586Z,68.97
2022-10-11T19:43:07.881Z,68.93
2022-10-11T19:45:36.375Z,68.85
2022-10-11T19:48:04.308Z,68.92
2022-10-11T19:50:32.621Z,69.07
2022-10-11T19:53:00.474Z,68.54
2022-10-11T19:55:28.396Z,68.45
2022-10-11T19:57:56.827Z,69.07
2022-10-11T20:00:24.696Z,69.16
2022-10-11T20:02:52.728Z,69.11
2022-10-11T20:05:20.567Z,69.19
2022-10-11T20:07:48.451Z,69.45
2022-10-11T20:10:17.111Z,69.50
2022-10-11T20:12:46.085Z,69.39
2022-10-11T20:15:13.988Z,69.68
2022-10-11T20:17:51.852Z,70.04
2022-10-11T20:20:20.042Z,69.92
2022-10-11T20:22:47.872Z,69.97
2022-10-11T20:25:15.761Z,70.01
2022-10-11T20:27:43.905Z,69.80
2022-10-11T20:30:11.735Z,69.54
2022-10-11T20:32:39.987Z,69.71
2022-10-11T20:35:09.413Z,70.02
2022-10-11T20:37:37.334Z,70.38
2022-10-11T20:40:05.215Z,69.67
2022-10-11T20:42:32.979Z,70.13
2022-10-11T20:45:01.227Z,69.79
2022-10-11T20:47:29.191Z,70.11
2022-10-11T20:49:57.101Z,70.07
2022-10-11T20:52:24.766Z,69.93
2022-10-11T20:54:52.931Z,70.05
2022-10-11T20:57:21.294Z,70.15
2022-10-11T20:59:48.988Z,70.29
2022-10-11T21:02:19.097Z,70.21
2022-10-11T21:04:47.067Z,70.32
2022-10-11T21:07:14.782Z,70.22
2022-10-11T21:09:43.061Z,70.45
2022-10-11T21:12:10.830Z,70.59
2022-10-11T21:14:38.590Z,69.92
2022-10-11T21:17:06.312Z,70.13
2022-10-11T21:19:34.114Z,70.49
2022-10-11T21:22:02.538Z,70.76
2022-10-11T21:24:30.346Z,70.81
2022-10-11T21:27:00.637Z,70.56
2022-10-11T21:29:28.710Z,70.74
2022-10-11T21:31:56.493Z,70.67
2022-10-11T21:34:24.731Z,70.94
2022-10-11T21:36:52.799Z,71.01
2022-10-11T21:39:20.568Z,71.18
2022-10-11T21:41:48.284Z,70.85
2022-10-11T21:44:16.232Z,70.36
2022-10-11T21:49:32.113Z,71.12
2022-10-11T21:51:59.802Z,71.28
2022-10-11T21:54:27.442Z,71.24
2022-10-11T21:56:56.563Z,71.08
2022-10-11T21:59:24.471Z,70.69
2022-10-11T22:01:52.359Z,71.37
2022-10-11T22:04:20.157Z,71.13
2022-10-11T22:06:47.797Z,71.03
2022-10-11T22:09:15.643Z,71.55
2022-10-11T22:11:43.372Z,71.67
2022-10-11T22:14:11.122Z,71.59
2022-10-11T22:16:38.822Z,71.58
2022-10-11T22:19:06.465Z,71.75
2022-10-11T22:21:34.673Z,71.66
2022-10-11T22:24:02.320Z,71.47
2022-10-11T22:26:30.900Z,72.08
2022-10-11T22:28:58.679Z,71.72
2022-10-11T22:31:26.357Z,72.30
2022-10-11T22:33:54.560Z,72.09
2022-10-11T22:36:24.303Z,71.86
2022-10-11T22:38:52.087Z,72.18
2022-10-11T22:41:19.746Z,72.35
2022-10-11T22:43:47.634Z,72.14
2022-10-11T22:46:15.833Z,72.42
2022-10-11T22:48:43.517Z,71.99
2022-10-11T22:51:11.273Z,72.11
2022-10-11T22:53:38.937Z,72.33
2022-10-11T22:56:06.634Z,72.59
2022-10-11T22:58:35.196Z,72.15
2022-10-11T23:01:03.245Z,71.96
2022-10-11T23:03:30.951Z,72.04
2022-10-11T23:05:58.788Z,72.11
2022-10-11T23:08:26.419Z,72.01
2022-10-11T23:10:54.739Z,72.52
2022-10-11T23:13:22.516Z,71.94
2022-10-11T23:15:50.122Z,72.66
2022-10-11T23:18:17.754Z,72.08
2022-10-11T23:20:45.358Z,72.52
2022-10-11T23:23:15.015Z,72.00
2022-10-11T23:25:42.640Z,72.55
2022-10-11T23:28:10.321Z,72.12
2022-10-11T23:30:37.872Z,72.15
2022-10-11T23:33:05.479Z,72.06
2022-10-11T23:35:33.957Z,72.12
2022-10-11T23:38:01.562Z,72.18
2022-10-11T23:40:29.122Z,72.40
2022-10-11T23:42:56.719Z,72.28
2022-10-11T23:45:24.260Z,72.18
2022-10-11T23:47:52.176Z,72.64
2022-10-11T23:50:19.790Z,72.67
2022-10-11T23:52:47.365Z,72.03
2022-10-11T23:55:14.931Z,72.73
2022-10-11T23:57:42.545Z,73.42
